sensor_id;sensor_type;location;lat;lon;timestamp;P1;durP1;ratioP1;P2;durP2;ratioP2
55222;SDS011;41090;48.632;12.428;2022-09-30T00:00:55;6.53;;;5.83;;
55222;SDS011;41090;48.632;12.428;2022-09-30T00:03:20;6.03;;;5.47;;
55222;SDS011;41090;48.632;12.428;2022-09-30T00:05:46;7.27;;;6.50;;
55222;SDS011;41090;48.632;12.428;2022-09-30T00:08:12;7.77;;;7.03;;
55222;SDS011;41090;48.632;12.428;2022-09-30T00:10:37;8.03;;;7.30;;
55222;SDS011;41090;48.632;12.428;2022-09-30T00:13:03;8.57;;;7.77;;
55222;SDS011;41090;48.632;12.428;2022-09-30T00:15:29;9.13;;;7.37;;
55222;SDS011;41090;48.632;12.428;2022-09-30T00:17:55;8.77;;;7.27;;
55222;SDS011;41090;48.632;12.428;2022-09-30T00:20:20;8.77;;;7.90;;
55222;SDS011;41090;48.632;12.428;2022-09-30T00:22:45;8.17;;;7.30;;
55222;SDS011;41090;48.632;12.428;2022-09-30T00:25:11;8.23;;;7.43;;
55222;SDS011;41090;48.632;12.428;2022-09-30T00:27:36;9.40;;;8.03;;
55222;SDS011;41090;48.632;12.428;2022-09-30T00:30:02;9.23;;;8.43;;
55222;SDS011;41090;48.632;12.428;2022-09-30T00:32:27;10.67;;;7.90;;
55222;SDS011;41090;48.632;12.428;2022-09-30T00:34:53;8.93;;;8.03;;
55222;SDS011;41090;48.632;12.428;2022-09-30T00:37:18;9.20;;;8.30;;
55222;SDS011;41090;48.632;12.428;2022-09-30T00:39:43;9.67;;;8.70;;
55222;SDS011;41090;48.632;12.428;2022-09-30T00:42:10;9.97;;;9.17;;
55222;SDS011;41090;48.632;12.428;2022-09-30T00:44:49;9.43;;;8.53;;
55222;SDS011;41090;48.632;12.428;2022-09-30T00:49:58;9.53;;;8.63;;
55222;SDS011;41090;48.632;12.428;2022-09-30T00:52:25;8.73;;;8.03;;
55222;SDS011;41090;48.632;12.428;2022-09-30T00:54:51;9.93;;;8.87;;
55222;SDS011;41090;48.632;12.428;2022-09-30T00:57:17;9.43;;;8.43;;
55222;SDS011;41090;48.632;12.428;2022-09-30T00:59:44;9.47;;;8.57;;
55222;SDS011;41090;48.632;12.428;2022-09-30T01:02:12;8.77;;;7.83;;
55222;SDS011;41090;48.632;12.428;2022-09-30T01:04:38;8.53;;;7.83;;
55222;SDS011;41090;48.632;12.428;2022-09-30T01:07:05;8.90;;;8.10;;
55222;SDS011;41090;48.632;12.428;2022-09-30T01:09:37;8.83;;;8.03;;
55222;SDS011;41090;48.632;12.428;2022-09-30T01:12:08;8.33;;;7.40;;
55222;SDS011;41090;48.632;12.428;2022-09-30T01:14:34;8.00;;;7.30;;
55222;SDS011;41090;48.632;12.428;2022-09-30T01:17:14;7.67;;;6.87;;
55222;SDS011;41090;48.632;12.428;2022-09-30T01:40:44;9.23;;;8.37;;
55222;SDS011;41090;48.632;12.428;2022-09-30T01:49:21;9.20;;;8.40;;
55222;SDS011;41090;48.632;12.428;2022-09-30T01:51:26;8.17;;;7.40;;
55222;SDS011;41090;48.632;12.428;2022-09-30T01:54:12;9.97;;;8.33;;
55222;SDS011;41090;48.632;12.428;2022-09-30T01:56:42;9.90;;;9.00;;
55222;SDS011;41090;48.632;12.428;2022-09-30T01:59:13;9.77;;;8.87;;
55222;SDS011;41090;48.632;12.428;2022-09-30T02:01:44;9.97;;;9.03;;
55222;SDS011;41090;48.632;12.428;2022-09-30T02:04:13;9.13;;;8.33;;
55222;SDS011;41090;48.632;12.428;2022-09-30T02:06:41;10.30;;;9.17;;
55222;SDS011;41090;48.632;12.428;2022-09-30T02:09:13;11.03;;;9.93;;
55222;SDS011;41090;48.632;12.428;2022-09-30T02:11:39;9.17;;;8.47;;
55222;SDS011;41090;48.632;12.428;2022-09-30T02:14:19;9.13;;;8.23;;
55222;SDS011;41090;48.632;12.428;2022-09-30T02:16:58;8.13;;;7.33;;
55222;SDS011;41090;48.632;12.428;2022-09-30T02:22:35;9.10;;;8.30;;
55222;SDS011;41090;48.632;12.428;2022-09-30T02:24:41;10.40;;;8.97;;
55222;SDS011;41090;48.632;12.428;2022-09-30T02:27:09;9.67;;;7.80;;
55222;SDS011;41090;48.632;12.428;2022-09-30T02:29:52;8.70;;;7.90;;
55222;SDS011;41090;48.632;12.428;2022-09-30T02:32:21;8.37;;;7.37;;
55222;SDS011;41090;48.632;12.428;2022-09-30T02:34:49;8.00;;;7.20;;
55222;SDS011;41090;48.632;12.428;2022-09-30T02:37:26;7.80;;;7.00;;
55222;SDS011;41090;48.632;12.428;2022-09-30T02:42:19;8.87;;;8.00;;
55222;SDS011;41090;48.632;12.428;2022-09-30T02:44:48;8.40;;;7.63;;
55222;SDS011;41090;48.632;12.428;2022-09-30T02:47:19;9.73;;;8.73;;
55222;SDS011;41090;48.632;12.428;2022-09-30T02:49:59;9.13;;;8.30;;
55222;SDS011;41090;48.632;12.428;2022-09-30T02:55:20;11.20;;;9.53;;
55222;SDS011;41090;48.632;12.428;2022-09-30T03:00:20;11.17;;;10.00;;
55222;SDS011;41090;48.632;12.428;2022-09-30T03:02:45;11.57;;;10.47;;
55222;SDS011;41090;48.632;12.428;2022-09-30T03:05:11;11.00;;;9.90;;
55222;SDS011;41090;48.632;12.428;2022-09-30T03:07:36;11.27;;;10.23;;
55222;SDS011;41090;48.632;12.428;2022-09-30T03:10:10;11.33;;;10.43;;
55222;SDS011;41090;48.632;12.428;2022-09-30T03:15:25;11.50;;;10.30;;
55222;SDS011;41090;48.632;12.428;2022-09-30T03:17:57;11.80;;;9.97;;
55222;SDS011;41090;48.632;12.428;2022-09-30T03:23:02;11.13;;;10.23;;
55222;SDS011;41090;48.632;12.428;2022-09-30T03:25:36;12.40;;;11.30;;
55222;SDS011;41090;48.632;12.428;2022-09-30T03:30:56;13.60;;;11.10;;
55222;SDS011;41090;48.632;12.428;2022-09-30T03:33:26;12.97;;;11.70;;
55222;SDS011;41090;48.632;12.428;2022-09-30T03:45:57;12.97;;;11.50;;
55222;SDS011;41090;48.632;12.428;2022-09-30T03:48:26;12.07;;;10.97;;
55222;SDS011;41090;48.632;12.428;2022-09-30T03:50:53;11.83;;;10.83;;
55222;SDS011;41090;48.632;12.428;2022-09-30T03:53:19;12.57;;;11.27;;
55222;SDS011;41090;48.632;12.428;2022-09-30T03:55:45;12.73;;;11.57;;
55222;SDS011;41090;48.632;12.428;2022-09-30T03:58:14;13.27;;;11.83;;
55222;SDS011;41090;48.632;12.428;2022-09-30T04:00:40;13.23;;;11.93;;
55222;SDS011;41090;48.632;12.428;2022-09-30T04:03:10;12.50;;;11.40;;
55222;SDS011;41090;48.632;12.428;2022-09-30T04:05:36;13.10;;;11.80;;
55222;SDS011;41090;48.632;12.428;2022-09-30T04:08:01;13.90;;;12.60;;
55222;SDS011;41090;48.632;12.428;2022-09-30T04:10:26;13.40;;;12.20;;
55222;SDS011;41090;48.632;12.428;2022-09-30T04:12:52;12.33;;;11.13;;
55222;SDS011;41090;48.632;12.428;2022-09-30T04:15:18;13.40;;;12.07;;
55222;SDS011;41090;48.632;12.428;2022-09-30T04:17:43;13.13;;;11.77;;
55222;SDS011;41090;48.632;12.428;2022-09-30T04:20:09;12.70;;;11.60;;
55222;SDS011;41090;48.632;12.428;2022-09-30T04:22:36;11.10;;;10.20;;
55222;SDS011;41090;48.632;12.428;2022-09-30T04:25:01;12.20;;;11.00;;
55222;SDS011;41090;48.632;12.428;2022-09-30T04:27:27;12.03;;;10.93;;
55222;SDS011;41090;48.632;12.428;2022-09-30T04:29:57;11.97;;;10.90;;
55222;SDS011;41090;48.632;12.428;2022-09-30T04:32:22;12.90;;;11.60;;
55222;SDS011;41090;48.632;12.428;2022-09-30T04:34:50;14.57;;;13.17;;
55222;SDS011;41090;48.632;12.428;2022-09-30T04:37:18;14.93;;;13.53;;
55222;SDS011;41090;48.632;12.428;2022-09-30T04:39:43;15.03;;;13.57;;
55222;SDS011;41090;48.632;12.428;2022-09-30T04:42:08;14.40;;;13.03;;
55222;SDS011;41090;48.632;12.428;2022-09-30T04:44:34;12.33;;;11.33;;
55222;SDS011;41090;48.632;12.428;2022-09-30T04:46:59;13.63;;;12.33;;
55222;SDS011;41090;48.632;12.428;2022-09-30T04:49:25;13.57;;;12.37;;
55222;SDS011;41090;48.632;12.428;2022-09-30T04:51:50;12.50;;;11.50;;
55222;SDS011;41090;48.632;12.428;2022-09-30T04:54:15;12.50;;;11.30;;
55222;SDS011;41090;48.632;12.428;2022-09-30T04:56:41;11.27;;;10.37;;
55222;SDS011;41090;48.632;12.428;2022-09-30T04:59:17;11.33;;;10.33;;
55222;SDS011;41090;48.632;12.428;2022-09-30T05:01:43;13.47;;;12.07;;
55222;SDS011;41090;48.632;12.428;2022-09-30T05:04:08;11.87;;;10.77;;
55222;SDS011;41090;48.632;12.428;2022-09-30T05:06:34;12.47;;;11.30;;
55222;SDS011;41090;48.632;12.428;2022-09-30T05:09:00;12.33;;;11.23;;
55222;SDS011;41090;48.632;12.428;2022-09-30T05:11:25;11.57;;;10.47;;
55222;SDS011;41090;48.632;12.428;2022-09-30T05:13:51;11.33;;;10.33;;
55222;SDS011;41090;48.632;12.428;2022-09-30T05:16:17;12.40;;;11.10;;
55222;SDS011;41090;48.632;12.428;2022-09-30T05:18:42;11.77;;;10.77;;
55222;SDS011;41090;48.632;12.428;2022-09-30T05:21:10;13.43;;;11.47;;
55222;SDS011;41090;48.632;12.428;2022-09-30T05:23:35;12.87;;;10.60;;
55222;SDS011;41090;48.632;12.428;2022-09-30T05:26:01;11.07;;;10.17;;
55222;SDS011;41090;48.632;12.428;2022-09-30T05:28:27;10.70;;;9.80;;
55222;SDS011;41090;48.632;12.428;2022-09-30T05:30:59;10.37;;;9.50;;
55222;SDS011;41090;48.632;12.428;2022-09-30T05:33:25;11.10;;;10.20;;
55222;SDS011;41090;48.632;12.428;2022-09-30T05:35:50;10.73;;;9.77;;
55222;SDS011;41090;48.632;12.428;2022-09-30T05:38:19;11.40;;;10.20;;
55222;SDS011;41090;48.632;12.428;2022-09-30T05:40:44;10.80;;;9.90;;
55222;SDS011;41090;48.632;12.428;2022-09-30T05:43:09;11.93;;;10.77;;
55222;SDS011;41090;48.632;12.428;2022-09-30T05:45:43;11.00;;;10.07;;
55222;SDS011;41090;48.632;12.428;2022-09-30T05:48:18;10.33;;;9.43;;
55222;SDS011;41090;48.632;12.428;2022-09-30T05:50:46;11.57;;;10.50;;
55222;SDS011;41090;48.632;12.428;2022-09-30T05:53:17;12.10;;;11.00;;
55222;SDS011;41090;48.632;12.428;2022-09-30T05:55:45;11.30;;;10.07;;
55222;SDS011;41090;48.632;12.428;2022-09-30T05:58:12;11.97;;;10.63;;
55222;SDS011;41090;48.632;12.428;2022-09-30T06:00:39;12.80;;;11.40;;
55222;SDS011;41090;48.632;12.428;2022-09-30T06:03:24;11.37;;;10.37;;
55222;SDS011;41090;48.632;12.428;2022-09-30T06:05:57;11.30;;;10.20;;
55222;SDS011;41090;48.632;12.428;2022-09-30T06:08:29;9.67;;;8.87;;
55222;SDS011;41090;48.632;12.428;2022-09-30T06:11:06;10.73;;;9.73;;
55222;SDS011;41090;48.632;12.428;2022-09-30T06:13:35;10.73;;;9.83;;
55222;SDS011;41090;48.632;12.428;2022-09-30T06:16:04;10.97;;;9.97;;
55222;SDS011;41090;48.632;12.428;2022-09-30T06:18:32;11.87;;;10.67;;
55222;SDS011;41090;48.632;12.428;2022-09-30T06:21:03;11.53;;;10.33;;
55222;SDS011;41090;48.632;12.428;2022-09-30T06:23:47;12.27;;;9.97;;
55222;SDS011;41090;48.632;12.428;2022-09-30T06:29:19;11.40;;;10.27;;
55222;SDS011;41090;48.632;12.428;2022-09-30T06:32:18;13.73;;;12.47;;
55222;SDS011;41090;48.632;12.428;2022-09-30T06:34:47;12.60;;;11.40;;
55222;SDS011;41090;48.632;12.428;2022-09-30T06:37:16;12.43;;;11.33;;
55222;SDS011;41090;48.632;12.428;2022-09-30T06:39:52;11.90;;;10.90;;
55222;SDS011;41090;48.632;12.428;2022-09-30T06:43:06;12.63;;;11.53;;
55222;SDS011;41090;48.632;12.428;2022-09-30T06:45:13;12.33;;;11.13;;
55222;SDS011;41090;48.632;12.428;2022-09-30T06:48:02;13.20;;;11.90;;
55222;SDS011;41090;48.632;12.428;2022-09-30T06:50:41;13.67;;;11.73;;
55222;SDS011;41090;48.632;12.428;2022-09-30T06:53:19;20.80;;;17.60;;
55222;SDS011;41090;48.632;12.428;2022-09-30T06:55:53;19.20;;;17.20;;
55222;SDS011;41090;48.632;12.428;2022-09-30T06:58:19;15.20;;;13.80;;
55222;SDS011;41090;48.632;12.428;2022-09-30T07:03:35;16.93;;;15.23;;
55222;SDS011;41090;48.632;12.428;2022-09-30T07:06:12;14.20;;;12.90;;
55222;SDS011;41090;48.632;12.428;2022-09-30T07:08:42;12.60;;;11.50;;
55222;SDS011;41090;48.632;12.428;2022-09-30T07:11:16;12.63;;;11.63;;
55222;SDS011;41090;48.632;12.428;2022-09-30T07:13:48;13.00;;;11.90;;
55222;SDS011;41090;48.632;12.428;2022-09-30T07:16:13;14.80;;;13.03;;
55222;SDS011;41090;48.632;12.428;2022-09-30T07:18:39;12.63;;;11.43;;
55222;SDS011;41090;48.632;12.428;2022-09-30T07:21:08;11.03;;;10.13;;
55222;SDS011;41090;48.632;12.428;2022-09-30T07:23:34;11.50;;;10.50;;
55222;SDS011;41090;48.632;12.428;2022-09-30T07:26:00;11.50;;;10.50;;
55222;SDS011;41090;48.632;12.428;2022-09-30T07:28:29;11.40;;;10.37;;
55222;SDS011;41090;48.632;12.428;2022-09-30T07:30:57;12.10;;;10.67;;
55222;SDS011;41090;48.632;12.428;2022-09-30T07:33:23;11.43;;;9.50;;
55222;SDS011;41090;48.632;12.428;2022-09-30T07:35:57;11.27;;;10.27;;
55222;SDS011;41090;48.632;12.428;2022-09-30T07:38:27;9.80;;;9.00;;
55222;SDS011;41090;48.632;12.428;2022-09-30T07:42:28;9.60;;;8.80;;
55222;SDS011;41090;48.632;12.428;2022-09-30T07:44:55;9.53;;;8.70;;
55222;SDS011;41090;48.632;12.428;2022-09-30T07:47:20;9.60;;;8.80;;
55222;SDS011;41090;48.632;12.428;2022-09-30T07:49:45;10.80;;;9.57;;
55222;SDS011;41090;48.632;12.428;2022-09-30T07:52:11;9.13;;;8.33;;
55222;SDS011;41090;48.632;12.428;2022-09-30T07:54:37;10.60;;;9.50;;
55222;SDS011;41090;48.632;12.428;2022-09-30T07:57:03;9.37;;;8.43;;
55222;SDS011;41090;48.632;12.428;2022-09-30T07:59:31;9.73;;;8.03;;
55222;SDS011;41090;48.632;12.428;2022-09-30T08:01:57;8.67;;;7.87;;
55222;SDS011;41090;48.632;12.428;2022-09-30T08:04:23;9.23;;;8.43;;
55222;SDS011;41090;48.632;12.428;2022-09-30T08:06:50;8.57;;;7.77;;
55222;SDS011;41090;48.632;12.428;2022-09-30T12:48:07;6.07;;;4.87;;
55222;SDS011;41090;48.632;12.428;2022-09-30T12:50:46;5.60;;;5.10;;
55222;SDS011;41090;48.632;12.428;2022-09-30T12:53:26;6.60;;;5.07;;
55222;SDS011;41090;48.632;12.428;2022-09-30T12:55:52;5.60;;;4.50;;
55222;SDS011;41090;48.632;12.428;2022-09-30T12:58:23;5.57;;;4.90;;
55222;SDS011;41090;48.632;12.428;2022-09-30T13:00:58;5.47;;;4.97;;
55222;SDS011;41090;48.632;12.428;2022-09-30T13:03:24;6.90;;;5.13;;
55222;SDS011;41090;48.632;12.428;2022-09-30T13:06:01;4.97;;;4.40;;
55222;SDS011;41090;48.632;12.428;2022-09-30T13:08:40;5.43;;;4.67;;
55222;SDS011;41090;48.632;12.428;2022-09-30T13:11:20;5.63;;;5.07;;
55222;SDS011;41090;48.632;12.428;2022-09-30T13:13:56;4.67;;;4.20;;
55222;SDS011;41090;48.632;12.428;2022-09-30T13:19:17;7.10;;;4.90;;
55222;SDS011;41090;48.632;12.428;2022-09-30T13:21:43;5.63;;;4.50;;
55222;SDS011;41090;48.632;12.428;2022-09-30T13:24:08;5.10;;;4.60;;
55222;SDS011;41090;48.632;12.428;2022-09-30T13:26:37;5.50;;;5.00;;
55222;SDS011;41090;48.632;12.428;2022-09-30T13:32:00;7.60;;;6.10;;
55222;SDS011;41090;48.632;12.428;2022-09-30T13:34:21;6.33;;;5.20;;
55222;SDS011;41090;48.632;12.428;2022-09-30T13:39:22;8.70;;;7.87;;
55222;SDS011;41090;48.632;12.428;2022-09-30T13:41:56;11.73;;;10.53;;
55222;SDS011;41090;48.632;12.428;2022-09-30T13:44:24;4.90;;;4.50;;
55222;SDS011;41090;48.632;12.428;2022-09-30T13:46:53;5.73;;;5.13;;
55222;SDS011;41090;48.632;12.428;2022-09-30T13:51:48;3.83;;;3.53;;
55222;SDS011;41090;48.632;12.428;2022-09-30T13:54:18;4.17;;;3.77;;
55222;SDS011;41090;48.632;12.428;2022-09-30T13:56:47;4.00;;;3.60;;
55222;SDS011;41090;48.632;12.428;2022-09-30T14:14:00;4.37;;;3.97;;
55222;SDS011;41090;48.632;12.428;2022-09-30T14:21:51;4.40;;;3.47;;
55222;SDS011;41090;48.632;12.428;2022-09-30T14:24:26;3.67;;;3.37;;
55222;SDS011;41090;48.632;12.428;2022-09-30T14:31:52;4.20;;;3.90;;
55222;SDS011;41090;48.632;12.428;2022-09-30T14:34:19;4.27;;;3.87;;
55222;SDS011;41090;48.632;12.428;2022-09-30T14:36:46;5.23;;;4.07;;
55222;SDS011;41090;48.632;12.428;2022-09-30T14:39:17;5.33;;;3.87;;
55222;SDS011;41090;48.632;12.428;2022-09-30T14:42:00;4.13;;;3.83;;
55222;SDS011;41090;48.632;12.428;2022-09-30T14:44:27;4.30;;;3.90;;
55222;SDS011;41090;48.632;12.428;2022-09-30T14:46:54;4.77;;;4.30;;
55222;SDS011;41090;48.632;12.428;2022-09-30T14:49:25;4.70;;;4.23;;
55222;SDS011;41090;48.632;12.428;2022-09-30T14:52:00;4.30;;;3.90;;
55222;SDS011;41090;48.632;12.428;2022-09-30T14:54:27;4.63;;;4.30;;
55222;SDS011;41090;48.632;12.428;2022-09-30T14:56:53;4.70;;;4.20;;
55222;SDS011;41090;48.632;12.428;2022-09-30T14:59:19;5.00;;;4.60;;
55222;SDS011;41090;48.632;12.428;2022-09-30T15:01:46;4.80;;;4.40;;
55222;SDS011;41090;48.632;12.428;2022-09-30T15:04:16;5.07;;;4.57;;
55222;SDS011;41090;48.632;12.428;2022-09-30T15:06:43;4.60;;;4.20;;
55222;SDS011;41090;48.632;12.428;2022-09-30T15:09:17;4.63;;;4.20;;
55222;SDS011;41090;48.632;12.428;2022-09-30T15:11:44;4.10;;;3.70;;
55222;SDS011;41090;48.632;12.428;2022-09-30T15:14:20;4.43;;;3.97;;
55222;SDS011;41090;48.632;12.428;2022-09-30T15:16:51;4.70;;;4.20;;
55222;SDS011;41090;48.632;12.428;2022-09-30T15:19:17;4.13;;;3.77;;
55222;SDS011;41090;48.632;12.428;2022-09-30T15:21:43;4.80;;;4.40;;
55222;SDS011;41090;48.632;12.428;2022-09-30T15:24:08;6.80;;;4.53;;
55222;SDS011;41090;48.632;12.428;2022-09-30T15:26:37;4.60;;;4.20;;
55222;SDS011;41090;48.632;12.428;2022-09-30T15:29:05;4.40;;;4.00;;
55222;SDS011;41090;48.632;12.428;2022-09-30T15:31:32;4.10;;;3.70;;
55222;SDS011;41090;48.632;12.428;2022-09-30T15:34:01;4.33;;;3.93;;
55222;SDS011;41090;48.632;12.428;2022-09-30T15:36:27;3.90;;;3.60;;
55222;SDS011;41090;48.632;12.428;2022-09-30T15:38:53;4.63;;;3.73;;
55222;SDS011;41090;48.632;12.428;2022-09-30T15:41:18;4.10;;;3.50;;
55222;SDS011;41090;48.632;12.428;2022-09-30T15:43:47;4.67;;;3.93;;
55222;SDS011;41090;48.632;12.428;2022-09-30T15:46:23;4.37;;;3.97;;
55222;SDS011;41090;48.632;12.428;2022-09-30T15:48:58;4.30;;;3.90;;
55222;SDS011;41090;48.632;12.428;2022-09-30T15:53:51;5.20;;;4.03;;
55222;SDS011;41090;48.632;12.428;2022-09-30T15:56:23;3.57;;;3.27;;
55222;SDS011;41090;48.632;12.428;2022-09-30T15:58:53;4.00;;;3.60;;
55222;SDS011;41090;48.632;12.428;2022-09-30T16:03:49;4.20;;;3.90;;
55222;SDS011;41090;48.632;12.428;2022-09-30T16:06:15;6.43;;;4.90;;
55222;SDS011;41090;48.632;12.428;2022-09-30T16:08:44;6.37;;;4.70;;
55222;SDS011;41090;48.632;12.428;2022-09-30T16:11:18;4.50;;;4.10;;
55222;SDS011;41090;48.632;12.428;2022-09-30T16:13:44;6.50;;;3.90;;
55222;SDS011;41090;48.632;12.428;2022-09-30T16:16:14;3.93;;;3.20;;
55222;SDS011;41090;48.632;12.428;2022-09-30T16:18:42;4.03;;;3.63;;
55222;SDS011;41090;48.632;12.428;2022-09-30T16:21:22;3.73;;;3.43;;
55222;SDS011;41090;48.632;12.428;2022-09-30T16:23:51;4.83;;;3.43;;
55222;SDS011;41090;48.632;12.428;2022-09-30T16:26:28;4.43;;;3.97;;
55222;SDS011;41090;48.632;12.428;2022-09-30T16:28:54;5.37;;;3.67;;
55222;SDS011;41090;48.632;12.428;2022-09-30T16:31:21;4.60;;;3.80;;
55222;SDS011;41090;48.632;12.428;2022-09-30T16:33:46;4.00;;;3.60;;
55222;SDS011;41090;48.632;12.428;2022-09-30T16:36:12;4.57;;;3.33;;
55222;SDS011;41090;48.632;12.428;2022-09-30T16:38:38;4.40;;;3.63;;
55222;SDS011;41090;48.632;12.428;2022-09-30T16:41:04;3.57;;;3.27;;
55222;SDS011;41090;48.632;12.428;2022-09-30T16:43:29;3.93;;;3.63;;
55222;SDS011;41090;48.632;12.428;2022-09-30T16:45:56;5.43;;;3.70;;
55222;SDS011;41090;48.632;12.428;2022-09-30T16:48:21;3.60;;;3.30;;
55222;SDS011;41090;48.632;12.428;2022-09-30T16:53:13;3.90;;;3.60;;
55222;SDS011;41090;48.632;12.428;2022-09-30T16:55:38;5.60;;;3.50;;
55222;SDS011;41090;48.632;12.428;2022-09-30T16:58:11;3.73;;;3.43;;
55222;SDS011;41090;48.632;12.428;2022-09-30T17:00:36;3.93;;;3.47;;
55222;SDS011;41090;48.632;12.428;2022-09-30T17:03:06;21.07;;;18.63;;
55222;SDS011;41090;48.632;12.428;2022-09-30T17:05:34;26.27;;;23.43;;
55222;SDS011;41090;48.632;12.428;2022-09-30T17:08:00;81.53;;;70.30;;
55222;SDS011;41090;48.632;12.428;2022-09-30T17:10:26;42.93;;;37.33;;
55222;SDS011;41090;48.632;12.428;2022-09-30T17:12:53;10.33;;;9.23;;
55222;SDS011;41090;48.632;12.428;2022-09-30T17:15:19;4.57;;;4.00;;
55222;SDS011;41090;48.632;12.428;2022-09-30T17:17:44;3.93;;;3.30;;
55222;SDS011;41090;48.632;12.428;2022-09-30T17:20:10;4.30;;;3.33;;
55222;SDS011;41090;48.632;12.428;2022-09-30T17:22:35;4.00;;;3.70;;
55222;SDS011;41090;48.632;12.428;2022-09-30T17:25:01;6.57;;;5.97;;
55222;SDS011;41090;48.632;12.428;2022-09-30T17:27:26;12.40;;;9.77;;
55222;SDS011;41090;48.632;12.428;2022-09-30T17:29:52;11.63;;;8.60;;
55222;SDS011;41090;48.632;12.428;2022-09-30T17:32:17;10.07;;;7.90;;
55222;SDS011;41090;48.632;12.428;2022-09-30T17:34:45;10.03;;;7.40;;
55222;SDS011;41090;48.632;12.428;2022-09-30T17:37:13;13.40;;;9.30;;
55222;SDS011;41090;48.632;12.428;2022-09-30T17:39:38;11.80;;;8.90;;
55222;SDS011;41090;48.632;12.428;2022-09-30T17:42:04;14.50;;;11.90;;
55222;SDS011;41090;48.632;12.428;2022-09-30T17:44:48;17.57;;;13.17;;
55222;SDS011;41090;48.632;12.428;2022-09-30T17:47:14;18.87;;;13.17;;
55222;SDS011;41090;48.632;12.428;2022-09-30T17:49:40;14.40;;;10.90;;
55222;SDS011;41090;48.632;12.428;2022-09-30T17:52:06;13.90;;;11.50;;
55222;SDS011;41090;48.632;12.428;2022-09-30T17:54:32;12.00;;;9.73;;
55222;SDS011;41090;48.632;12.428;2022-09-30T17:56:58;11.27;;;10.07;;
55222;SDS011;41090;48.632;12.428;2022-09-30T17:59:24;11.27;;;9.97;;
55222;SDS011;41090;48.632;12.428;2022-09-30T18:01:50;11.60;;;9.23;;
55222;SDS011;41090;48.632;12.428;2022-09-30T18:04:16;9.83;;;8.63;;
55222;SDS011;41090;48.632;12.428;2022-09-30T18:06:43;13.07;;;11.10;;
55222;SDS011;41090;48.632;12.428;2022-09-30T18:09:09;13.23;;;9.70;;
55222;SDS011;41090;48.632;12.428;2022-09-30T18:11:35;9.53;;;8.40;;
55222;SDS011;41090;48.632;12.428;2022-09-30T18:14:00;11.40;;;8.97;;
55222;SDS011;41090;48.632;12.428;2022-09-30T18:16:26;9.40;;;8.40;;
55222;SDS011;41090;48.632;12.428;2022-09-30T18:18:54;7.67;;;6.90;;
55222;SDS011;41090;48.632;12.428;2022-09-30T18:21:19;7.43;;;6.73;;
55222;SDS011;41090;48.632;12.428;2022-09-30T18:23:45;8.80;;;7.90;;
55222;SDS011;41090;48.632;12.428;2022-09-30T18:26:10;16.43;;;14.67;;
55222;SDS011;41090;48.632;12.428;2022-09-30T18:28:36;17.10;;;13.13;;
55222;SDS011;41090;48.632;12.428;2022-09-30T18:31:05;10.23;;;8.60;;
55222;SDS011;41090;48.632;12.428;2022-09-30T18:33:30;7.23;;;6.63;;
55222;SDS011;41090;48.632;12.428;2022-09-30T18:36:04;7.97;;;7.13;;
55222;SDS011;41090;48.632;12.428;2022-09-30T18:38:31;7.80;;;7.00;;
55222;SDS011;41090;48.632;12.428;2022-09-30T18:40:56;6.93;;;6.30;;
55222;SDS011;41090;48.632;12.428;2022-09-30T18:43:22;5.63;;;5.13;;
55222;SDS011;41090;48.632;12.428;2022-09-30T18:45:51;5.20;;;4.80;;
55222;SDS011;41090;48.632;12.428;2022-09-30T18:48:19;5.20;;;4.00;;
55222;SDS011;41090;48.632;12.428;2022-09-30T18:50:50;4.13;;;3.73;;
55222;SDS011;41090;48.632;12.428;2022-09-30T18:53:17;6.07;;;3.70;;
55222;SDS011;41090;48.632;12.428;2022-09-30T18:55:42;5.07;;;4.57;;
55222;SDS011;41090;48.632;12.428;2022-09-30T18:58:08;4.20;;;3.90;;
55222;SDS011;41090;48.632;12.428;2022-09-30T19:00:33;6.57;;;4.17;;
55222;SDS011;41090;48.632;12.428;2022-09-30T19:02:58;3.90;;;3.57;;
55222;SDS011;41090;48.632;12.428;2022-09-30T19:05:24;4.40;;;4.00;;
55222;SDS011;41090;48.632;12.428;2022-09-30T19:07:50;8.37;;;4.57;;
55222;SDS011;41090;48.632;12.428;2022-09-30T19:10:15;6.50;;;4.80;;
55222;SDS011;41090;48.632;12.428;2022-09-30T19:12:41;4.47;;;4.07;;
55222;SDS011;41090;48.632;12.428;2022-09-30T19:15:14;6.53;;;3.77;;
55222;SDS011;41090;48.632;12.428;2022-09-30T19:17:43;4.13;;;3.80;;
55222;SDS011;41090;48.632;12.428;2022-09-30T19:20:09;4.30;;;3.90;;
55222;SDS011;41090;48.632;12.428;2022-09-30T19:22:35;4.40;;;4.00;;
55222;SDS011;41090;48.632;12.428;2022-09-30T19:25:02;4.87;;;4.40;;
55222;SDS011;41090;48.632;12.428;2022-09-30T19:27:27;5.10;;;4.60;;
55222;SDS011;41090;48.632;12.428;2022-09-30T19:29:52;4.80;;;4.40;;
55222;SDS011;41090;48.632;12.428;2022-09-30T19:32:18;6.93;;;6.10;;
55222;SDS011;41090;48.632;12.428;2022-09-30T19:34:44;11.40;;;10.20;;
55222;SDS011;41090;48.632;12.428;2022-09-30T19:37:16;8.90;;;8.10;;
55222;SDS011;41090;48.632;12.428;2022-09-30T19:39:42;8.33;;;7.47;;
55222;SDS011;41090;48.632;12.428;2022-09-30T19:42:07;7.83;;;6.50;;
55222;SDS011;41090;48.632;12.428;2022-09-30T19:44:32;9.07;;;6.60;;
55222;SDS011;41090;48.632;12.428;2022-09-30T19:46:57;6.70;;;6.10;;
55222;SDS011;41090;48.632;12.428;2022-09-30T19:49:23;6.50;;;5.90;;
55222;SDS011;41090;48.632;12.428;2022-09-30T19:51:48;6.30;;;5.73;;
55222;SDS011;41090;48.632;12.428;2022-09-30T19:54:14;5.67;;;5.07;;
55222;SDS011;41090;48.632;12.428;2022-09-30T19:56:40;5.90;;;5.30;;
55222;SDS011;41090;48.632;12.428;2022-09-30T19:59:08;7.20;;;5.83;;
55222;SDS011;41090;48.632;12.428;2022-09-30T20:01:33;8.63;;;5.77;;
55222;SDS011;41090;48.632;12.428;2022-09-30T20:03:59;5.80;;;5.30;;
55222;SDS011;41090;48.632;12.428;2022-09-30T20:06:27;6.73;;;5.13;;
55222;SDS011;41090;48.632;12.428;2022-09-30T20:08:55;6.10;;;5.50;;
55222;SDS011;41090;48.632;12.428;2022-09-30T20:11:23;7.40;;;6.50;;
55222;SDS011;41090;48.632;12.428;2022-09-30T20:13:50;5.53;;;5.03;;
55222;SDS011;41090;48.632;12.428;2022-09-30T20:16:36;4.93;;;4.47;;
55222;SDS011;41090;48.632;12.428;2022-09-30T20:19:01;4.93;;;4.53;;
55222;SDS011;41090;48.632;12.428;2022-09-30T20:21:28;4.63;;;4.23;;
55222;SDS011;41090;48.632;12.428;2022-09-30T20:23:53;5.20;;;4.30;;
55222;SDS011;41090;48.632;12.428;2022-09-30T20:26:21;4.83;;;4.30;;
55222;SDS011;41090;48.632;12.428;2022-09-30T20:28:47;5.57;;;4.40;;
55222;SDS011;41090;48.632;12.428;2022-09-30T20:31:13;5.10;;;4.33;;
55222;SDS011;41090;48.632;12.428;2022-09-30T20:33:39;4.20;;;3.83;;
55222;SDS011;41090;48.632;12.428;2022-09-30T20:36:06;5.53;;;3.80;;
55222;SDS011;41090;48.632;12.428;2022-09-30T20:38:31;5.57;;;4.13;;
55222;SDS011;41090;48.632;12.428;2022-09-30T20:40:57;4.70;;;4.30;;
55222;SDS011;41090;48.632;12.428;2022-09-30T20:43:24;4.10;;;3.80;;
55222;SDS011;41090;48.632;12.428;2022-09-30T20:45:57;6.10;;;4.50;;
55222;SDS011;41090;48.632;12.428;2022-09-30T20:48:25;5.10;;;4.60;;
55222;SDS011;41090;48.632;12.428;2022-09-30T20:50:51;5.20;;;4.23;;
55222;SDS011;41090;48.632;12.428;2022-09-30T20:53:16;6.80;;;5.97;;
55222;SDS011;41090;48.632;12.428;2022-09-30T20:55:43;6.60;;;6.00;;
55222;SDS011;41090;48.632;12.428;2022-09-30T20:58:09;6.30;;;5.53;;
55222;SDS011;41090;48.632;12.428;2022-09-30T21:00:35;5.80;;;5.30;;